sensor_id;sensor_type;location;lat;lon;timestamp;pressure;altitude;pressure_sealevel;temperature;humidity
40612;BME280;26317;44.894;20.286;2023-12-04T00:01:31;101868.97;;;0.72;80.46
40612;BME280;26317;44.894;20.286;2023-12-04T00:04:02;101873.16;;;0.66;80.49
40612;BME280;26317;44.894;20.286;2023-12-04T00:06:36;101865.50;;;0.71;80.63
40612;BME280;26317;44.894;20.286;2023-12-04T00:09:06;101862.88;;;0.71;80.63
40612;BME280;26317;44.894;20.286;2023-12-04T00:11:36;101868.03;;;0.65;79.85
40612;BME280;26317;44.894;20.286;2023-12-04T00:14:07;101862.75;;;0.65;79.67
40612;BME280;26317;44.894;20.286;2023-12-04T00:16:40;101867.09;;;0.58;80.13
40612;BME280;26317;44.894;20.286;2023-12-04T00:19:11;101873.53;;;0.55;80.87
40612;BME280;26317;44.894;20.286;2023-12-04T00:21:41;101879.16;;;0.52;81.13
40612;BME280;26317;44.894;20.286;2023-12-04T00:24:12;101865.84;;;0.45;81.27
40612;BME280;26317;44.894;20.286;2023-12-04T00:26:42;101879.97;;;0.53;81.00
40612;BME280;26317;44.894;20.286;2023-12-04T00:29:13;101882.47;;;0.46;80.56
40612;BME280;26317;44.894;20.286;2023-12-04T00:31:46;101879.19;;;0.44;80.56
40612;BME280;26317;44.894;20.286;2023-12-04T00:34:16;101885.94;;;0.46;81.36
40612;BME280;26317;44.894;20.286;2023-12-04T00:36:47;101853.03;;;0.26;80.82
40612;BME280;26317;44.894;20.286;2023-12-04T00:39:18;101880.00;;;0.44;80.51
40612;BME280;26317;44.894;20.286;2023-12-04T00:41:48;101887.09;;;0.44;80.47
40612;BME280;26317;44.894;20.286;2023-12-04T00:44:19;101892.38;;;0.44;80.43
40612;BME280;26317;44.894;20.286;2023-12-04T00:46:52;101901.94;;;0.45;80.23
40612;BME280;26317;44.894;20.286;2023-12-04T00:49:23;101893.22;;;0.44;80.37
40612;BME280;26317;44.894;20.286;2023-12-04T00:51:53;101891.56;;;0.43;80.25
40612;BME280;26317;44.894;20.286;2023-12-04T00:54:29;101890.72;;;0.43;79.97
40612;BME280;26317;44.894;20.286;2023-12-04T00:56:59;101885.13;;;0.38;79.81
40612;BME280;26317;44.894;20.286;2023-12-04T00:59:30;101893.88;;;0.38;79.12
40612;BME280;26317;44.894;20.286;2023-12-04T01:02:05;101896.91;;;0.27;79.65
40612;BME280;26317;44.894;20.286;2023-12-04T01:04:35;101892.13;;;0.23;80.21
40612;BME280;26317;44.894;20.286;2023-12-04T01:07:06;101890.47;;;0.22;80.84
40612;BME280;26317;44.894;20.286;2023-12-04T01:09:37;101896.06;;;0.27;80.78
40612;BME280;26317;44.894;20.286;2023-12-04T01:12:07;101890.78;;;0.27;80.46
40612;BME280;26317;44.894;20.286;2023-12-04T01:14:38;101885.19;;;0.22;80.03
40612;BME280;26317;44.894;20.286;2023-12-04T01:17:13;101866.13;;;0.12;80.02
40612;BME280;26317;44.894;20.286;2023-12-04T01:19:44;101887.31;;;0.26;79.92
40612;BME280;26317;44.894;20.286;2023-12-04T01:22:15;101894.88;;;0.29;79.59
40612;BME280;26317;44.894;20.286;2023-12-04T01:24:47;101890.31;;;0.23;80.11
40612;BME280;26317;44.894;20.286;2023-12-04T01:27:17;101894.13;;;0.21;80.12
40612;BME280;26317;44.894;20.286;2023-12-04T01:29:48;101885.53;;;0.19;80.97
40612;BME280;26317;44.894;20.286;2023-12-04T01:32:21;101889.84;;;0.12;81.72
40612;BME280;26317;44.894;20.286;2023-12-04T01:34:52;101896.25;;;0.17;81.59
40612;BME280;26317;44.894;20.286;2023-12-04T01:37:23;101846.06;;;-0.06;80.74
40612;BME280;26317;44.894;20.286;2023-12-04T01:39:53;101880.59;;;0.24;80.33
40612;BME280;26317;44.894;20.286;2023-12-04T01:42:24;101875.31;;;0.24;80.27
40612;BME280;26317;44.894;20.286;2023-12-04T01:44:54;101887.16;;;0.28;80.35
40612;BME280;26317;44.894;20.286;2023-12-04T01:47:27;101871.53;;;0.18;79.56
40612;BME280;26317;44.894;20.286;2023-12-04T01:49:58;101889.97;;;0.26;79.69
40612;BME280;26317;44.894;20.286;2023-12-04T01:52:29;101869.25;;;0.07;79.98
40612;BME280;26317;44.894;20.286;2023-12-04T01:55:00;101891.16;;;0.16;80.35
40612;BME280;26317;44.894;20.286;2023-12-04T01:57:31;101895.28;;;0.10;80.77
40612;BME280;26317;44.894;20.286;2023-12-04T02:00:02;101877.34;;;-0.03;81.07
40612;BME280;26317;44.894;20.286;2023-12-04T02:02:40;101893.16;;;0.06;81.70
40612;BME280;26317;44.894;20.286;2023-12-04T02:05:13;101903.91;;;0.04;81.78
40612;BME280;26317;44.894;20.286;2023-12-04T02:07:44;101905.22;;;0.00;82.02
40612;BME280;26317;44.894;20.286;2023-12-04T02:10:16;101907.66;;;0.02;81.91
40612;BME280;26317;44.894;20.286;2023-12-04T02:12:46;101907.66;;;0.02;81.90
40612;BME280;26317;44.894;20.286;2023-12-04T02:15:17;101912.59;;;0.05;81.08
40612;BME280;26317;44.894;20.286;2023-12-04T02:17:50;101917.56;;;0.08;81.21
40612;BME280;26317;44.894;20.286;2023-12-04T02:20:21;101918.03;;;0.11;81.25
40612;BME280;26317;44.894;20.286;2023-12-04T02:23:01;101914.44;;;0.12;80.92
40612;BME280;26317;44.894;20.286;2023-12-04T02:25:34;101920.34;;;0.14;80.58
40612;BME280;26317;44.894;20.286;2023-12-04T02:28:06;101922.47;;;0.19;81.19
40612;BME280;26317;44.894;20.286;2023-12-04T02:30:38;101924.75;;;0.22;80.07
40612;BME280;26317;44.894;20.286;2023-12-04T02:33:12;101919.84;;;0.19;80.87
40612;BME280;26317;44.894;20.286;2023-12-04T02:35:44;101923.16;;;0.21;80.61
40612;BME280;26317;44.894;20.286;2023-12-04T02:38:15;101915.88;;;0.23;80.51
40612;BME280;26317;44.894;20.286;2023-12-04T02:40:51;101928.06;;;0.24;80.09
40612;BME280;26317;44.894;20.286;2023-12-04T02:43:22;101919.97;;;0.25;79.85
40612;BME280;26317;44.894;20.286;2023-12-04T02:45:52;101924.44;;;0.25;79.48
40612;BME280;26317;44.894;20.286;2023-12-04T02:48:23;101924.75;;;0.22;79.71
40612;BME280;26317;44.894;20.286;2023-12-04T02:50:53;101918.19;;;0.18;80.05
40612;BME280;26317;44.894;20.286;2023-12-04T02:53:24;101893.50;;;0.03;80.20
40612;BME280;26317;44.894;20.286;2023-12-04T02:55:57;101932.03;;;0.20;80.10
40612;BME280;26317;44.894;20.286;2023-12-04T02:58:27;101924.47;;;0.17;79.64
40612;BME280;26317;44.894;20.286;2023-12-04T03:00:57;101929.22;;;0.13;79.24
40612;BME280;26317;44.894;20.286;2023-12-04T03:03:28;101931.38;;;0.10;79.47
40612;BME280;26317;44.894;20.286;2023-12-04T03:05:59;101927.28;;;0.07;79.63
40612;BME280;26317;44.894;20.286;2023-12-04T03:08:29;101923.50;;;0.02;79.37
40612;BME280;26317;44.894;20.286;2023-12-04T03:11:04;101926.47;;;-0.02;79.00
40612;BME280;26317;44.894;20.286;2023-12-04T03:13:35;101937.19;;;-0.03;79.29
40612;BME280;26317;44.894;20.286;2023-12-04T03:16:14;101939.16;;;-0.05;78.51
40612;BME280;26317;44.894;20.286;2023-12-04T03:18:45;101938.16;;;-0.04;79.20
40612;BME280;26317;44.894;20.286;2023-12-04T03:21:15;101932.88;;;-0.04;79.36
40612;BME280;26317;44.894;20.286;2023-12-04T03:23:45;101919.91;;;-0.14;79.26
40612;BME280;26317;44.894;20.286;2023-12-04T03:26:18;101929.13;;;-0.10;79.34
40612;BME280;26317;44.894;20.286;2023-12-04T03:28:49;101938.00;;;-0.11;79.66
40612;BME280;26317;44.894;20.286;2023-12-04T03:31:19;101926.50;;;-0.10;79.48
40612;BME280;26317;44.894;20.286;2023-12-04T03:33:50;101933.91;;;-0.13;79.09
40612;BME280;26317;44.894;20.286;2023-12-04T03:36:20;101924.34;;;-0.14;79.46
40612;BME280;26317;44.894;20.286;2023-12-04T03:38:51;101934.75;;;-0.13;79.76
40612;BME280;26317;44.894;20.286;2023-12-04T03:41:24;101927.63;;;-0.20;79.44
40612;BME280;26317;44.894;20.286;2023-12-04T03:43:54;101929.44;;;-0.21;79.06
40612;BME280;26317;44.894;20.286;2023-12-04T03:46:25;101922.06;;;-0.25;78.80
40612;BME280;26317;44.894;20.286;2023-12-04T03:48:56;101918.41;;;-0.24;78.56
40612;BME280;26317;44.894;20.286;2023-12-04T03:51:26;101920.56;;;-0.20;78.39
40612;BME280;26317;44.894;20.286;2023-12-04T03:53:58;101920.75;;;-0.21;78.01
40612;BME280;26317;44.894;20.286;2023-12-04T03:56:31;101922.06;;;-0.17;78.02
40612;BME280;26317;44.894;20.286;2023-12-04T03:59:02;101916.94;;;-0.19;77.91
40612;BME280;26317;44.894;20.286;2023-12-04T04:01:34;101929.28;;;-0.19;77.49
40612;BME280;26317;44.894;20.286;2023-12-04T04:04:05;101924.16;;;-0.21;77.26
40612;BME280;26317;44.894;20.286;2023-12-04T04:06:36;101928.66;;;-0.21;77.25
40612;BME280;26317;44.894;20.286;2023-12-04T04:09:09;101903.28;;;-0.38;77.02
40612;BME280;26317;44.894;20.286;2023-12-04T04:11:42;101923.03;;;-0.26;77.62
40612;BME280;26317;44.894;20.286;2023-12-04T04:14:12;101889.44;;;-0.49;77.67
40612;BME280;26317;44.894;20.286;2023-12-04T04:16:43;101925.69;;;-0.26;77.82
40612;BME280;26317;44.894;20.286;2023-12-04T04:19:13;101936.22;;;-0.26;78.64
40612;BME280;26317;44.894;20.286;2023-12-04T04:21:44;101943.63;;;-0.30;78.47
40612;BME280;26317;44.894;20.286;2023-12-04T04:24:21;101946.59;;;-0.33;77.78
40612;BME280;26317;44.894;20.286;2023-12-04T04:26:54;101942.47;;;-0.35;77.54
40612;BME280;26317;44.894;20.286;2023-12-04T04:29:24;101931.94;;;-0.35;77.24
40612;BME280;26317;44.894;20.286;2023-12-04T04:31:55;101935.41;;;-0.35;77.94
40612;BME280;26317;44.894;20.286;2023-12-04T04:34:27;101924.84;;;-0.43;78.03
40612;BME280;26317;44.894;20.286;2023-12-04T04:37:01;101943.94;;;-0.41;78.22
40612;BME280;26317;44.894;20.286;2023-12-04T04:39:32;101949.22;;;-0.41;78.06
40612;BME280;26317;44.894;20.286;2023-12-04T04:42:05;101937.34;;;-0.45;77.58
40612;BME280;26317;44.894;20.286;2023-12-04T04:44:36;101929.31;;;-0.43;77.38
40612;BME280;26317;44.894;20.286;2023-12-04T04:47:06;101938.38;;;-0.46;77.16
40612;BME280;26317;44.894;20.286;2023-12-04T04:49:37;101932.75;;;-0.51;77.39
40612;BME280;26317;44.894;20.286;2023-12-04T04:52:09;101939.34;;;-0.47;77.32
40612;BME280;26317;44.894;20.286;2023-12-04T04:54:39;101933.25;;;-0.48;76.96
40612;BME280;26317;44.894;20.286;2023-12-04T04:57:16;101942.47;;;-0.52;77.35
40612;BME280;26317;44.894;20.286;2023-12-04T04:59:47;101929.94;;;-0.58;77.68
40612;BME280;26317;44.894;20.286;2023-12-04T05:02:18;101924.38;;;-0.63;78.20
40612;BME280;26317;44.894;20.286;2023-12-04T05:04:48;101937.19;;;-0.60;79.01
40612;BME280;26317;44.894;20.286;2023-12-04T05:07:19;101928.47;;;-0.60;79.49
40612;BME280;26317;44.894;20.286;2023-12-04T05:09:49;101905.72;;;-0.77;79.55
40612;BME280;26317;44.894;20.286;2023-12-04T05:12:27;101933.88;;;-0.62;79.56
40612;BME280;26317;44.894;20.286;2023-12-04T05:14:57;101937.53;;;-0.63;79.64
40612;BME280;26317;44.894;20.286;2023-12-04T05:17:27;101943.59;;;-0.62;79.66
40612;BME280;26317;44.894;20.286;2023-12-04T05:19:58;101940.16;;;-0.63;79.80
40612;BME280;26317;44.894;20.286;2023-12-04T05:22:37;101937.69;;;-0.64;79.96
40612;BME280;26317;44.894;20.286;2023-12-04T05:25:08;101936.03;;;-0.65;79.94
40612;BME280;26317;44.894;20.286;2023-12-04T05:27:41;101934.06;;;-0.63;80.18
40612;BME280;26317;44.894;20.286;2023-12-04T05:30:13;101937.69;;;-0.64;79.55
40612;BME280;26317;44.894;20.286;2023-12-04T05:32:44;101926.16;;;-0.63;79.46
40612;BME280;26317;44.894;20.286;2023-12-04T05:35:15;101928.28;;;-0.67;79.75
40612;BME280;26317;44.894;20.286;2023-12-04T05:37:46;101930.75;;;-0.65;79.70
40612;BME280;26317;44.894;20.286;2023-12-04T05:40:16;101939.81;;;-0.68;79.95
40612;BME280;26317;44.894;20.286;2023-12-04T05:42:51;101932.75;;;-0.75;80.47
40612;BME280;26317;44.894;20.286;2023-12-04T05:45:21;101930.09;;;-0.75;80.54
40612;BME280;26317;44.894;20.286;2023-12-04T05:47:52;101928.78;;;-0.71;81.07
40612;BME280;26317;44.894;20.286;2023-12-04T05:50:23;101925.97;;;-0.70;80.79
40612;BME280;26317;44.894;20.286;2023-12-04T05:52:53;101909.00;;;-0.83;80.40
40612;BME280;26317;44.894;20.286;2023-12-04T05:55:24;101927.47;;;-0.67;80.71
40612;BME280;26317;44.894;20.286;2023-12-04T05:58:01;101924.84;;;-0.67;80.73
40612;BME280;26317;44.894;20.286;2023-12-04T06:00:34;101929.44;;;-0.69;80.52
40612;BME280;26317;44.894;20.286;2023-12-04T06:03:05;101925.81;;;-0.68;80.85
40612;BME280;26317;44.894;20.286;2023-12-04T06:05:35;101908.50;;;-0.79;80.70
40612;BME280;26317;44.894;20.286;2023-12-04T06:08:06;101934.38;;;-0.66;80.82
40612;BME280;26317;44.894;20.286;2023-12-04T06:10:38;101935.69;;;-0.70;80.64
40612;BME280;26317;44.894;20.286;2023-12-04T06:13:11;101940.31;;;-0.64;80.16
40612;BME280;26317;44.894;20.286;2023-12-04T06:15:47;101944.59;;;-0.63;80.25
40612;BME280;26317;44.894;20.286;2023-12-04T06:18:18;101946.22;;;-0.62;80.38
40612;BME280;26317;44.894;20.286;2023-12-04T06:20:48;101932.06;;;-0.69;80.04
40612;BME280;26317;44.894;20.286;2023-12-04T06:23:19;101944.59;;;-0.63;80.26
40612;BME280;26317;44.894;20.286;2023-12-04T06:25:53;101943.28;;;-0.67;80.28
40612;BME280;26317;44.894;20.286;2023-12-04T06:28:27;101941.28;;;-0.65;80.38
40612;BME280;26317;44.894;20.286;2023-12-04T06:30:59;101942.97;;;-0.64;80.67
40612;BME280;26317;44.894;20.286;2023-12-04T06:33:30;101940.97;;;-0.62;81.06
40612;BME280;26317;44.894;20.286;2023-12-04T06:36:02;101934.06;;;-0.63;81.52
40612;BME280;26317;44.894;20.286;2023-12-04T06:38:39;101931.44;;;-0.63;81.86
40612;BME280;26317;44.894;20.286;2023-12-04T06:41:11;101942.63;;;-0.61;82.03
40612;BME280;26317;44.894;20.286;2023-12-04T06:43:50;101938.03;;;-0.59;81.74
40612;BME280;26317;44.894;20.286;2023-12-04T06:46:21;101925.69;;;-0.59;82.25
40612;BME280;26317;44.894;20.286;2023-12-04T06:48:54;101935.22;;;-0.50;81.83
40612;BME280;26317;44.894;20.286;2023-12-04T06:51:30;101925.50;;;-0.49;81.91
40612;BME280;26317;44.894;20.286;2023-12-04T06:54:00;101898.16;;;-0.64;82.17
40612;BME280;26317;44.894;20.286;2023-12-04T06:56:31;101928.97;;;-0.40;82.50
40612;BME280;26317;44.894;20.286;2023-12-04T06:59:04;101934.72;;;-0.37;82.96
40612;BME280;26317;44.894;20.286;2023-12-04T07:01:34;101913.63;;;-0.45;82.99
40612;BME280;26317;44.894;20.286;2023-12-04T07:04:05;101919.25;;;-0.48;82.76
40612;BME280;26317;44.894;20.286;2023-12-04T07:06:37;101934.91;;;-0.30;82.61
40612;BME280;26317;44.894;20.286;2023-12-04T07:09:08;101924.84;;;-0.43;82.37
40612;BME280;26317;44.894;20.286;2023-12-04T07:11:39;101935.06;;;-0.24;82.46
40612;BME280;26317;44.894;20.286;2023-12-04T07:14:12;101930.28;;;-0.20;83.10
40612;BME280;26317;44.894;20.286;2023-12-04T07:16:43;101935.03;;;-0.16;82.36
40612;BME280;26317;44.894;20.286;2023-12-04T07:19:13;101943.28;;;-0.11;82.80
40612;BME280;26317;44.894;20.286;2023-12-04T07:21:44;101915.94;;;-0.18;82.47
40612;BME280;26317;44.894;20.286;2023-12-04T07:24:15;101886.28;;;-0.28;82.53
40612;BME280;26317;44.894;20.286;2023-12-04T07:26:45;101934.72;;;0.04;82.63
40612;BME280;26317;44.894;20.286;2023-12-04T07:29:20;101941.31;;;0.08;82.93
40612;BME280;26317;44.894;20.286;2023-12-04T07:31:50;101933.03;;;0.11;82.70
40612;BME280;26317;44.894;20.286;2023-12-04T07:34:21;101913.28;;;0.07;82.33
40612;BME280;26317;44.894;20.286;2023-12-04T07:36:52;101924.63;;;0.15;83.22
40612;BME280;26317;44.894;20.286;2023-12-04T07:39:22;101908.97;;;0.06;83.36
40612;BME280;26317;44.894;20.286;2023-12-04T07:41:53;101938.75;;;0.30;83.30
40612;BME280;26317;44.894;20.286;2023-12-04T07:44:40;101933.97;;;0.34;83.78
40612;BME280;26317;44.894;20.286;2023-12-04T07:47:10;101930.81;;;0.38;83.65
40612;BME280;26317;44.894;20.286;2023-12-04T07:49:41;101928.97;;;0.47;83.85
40612;BME280;26317;44.894;20.286;2023-12-04T07:52:12;101924.34;;;0.57;83.68
40612;BME280;26317;44.894;20.286;2023-12-04T07:54:42;101932.91;;;0.59;83.63
40612;BME280;26317;44.894;20.286;2023-12-04T07:57:13;101925.28;;;0.64;83.60
40612;BME280;26317;44.894;20.286;2023-12-04T07:59:46;101932.34;;;0.72;83.91
40612;BME280;26317;44.894;20.286;2023-12-04T08:02:18;101932.66;;;0.77;83.59
40612;BME280;26317;44.894;20.286;2023-12-04T08:04:49;101934.44;;;0.84;83.62
40612;BME280;26317;44.894;20.286;2023-12-04T08:07:20;101921.13;;;0.78;83.35
40612;BME280;26317;44.894;20.286;2023-12-04T08:09:51;101944.47;;;0.89;84.02
40612;BME280;26317;44.894;20.286;2023-12-04T08:12:21;101910.19;;;0.81;82.96
40612;BME280;26317;44.894;20.286;2023-12-04T08:14:54;101940.97;;;0.97;82.82
40612;BME280;26317;44.894;20.286;2023-12-04T08:17:26;101945.75;;;1.01;83.59
40612;BME280;26317;44.894;20.286;2023-12-04T08:19:56;101945.88;;;1.08;84.03
40612;BME280;26317;44.894;20.286;2023-12-04T08:22:27;101940.56;;;1.16;83.90
40612;BME280;26317;44.894;20.286;2023-12-04T08:24:59;101935.59;;;1.13;83.79
40612;BME280;26317;44.894;20.286;2023-12-04T08:27:32;101948.91;;;1.27;82.70
40612;BME280;26317;44.894;20.286;2023-12-04T08:30:07;101923.03;;;1.15;82.42
40612;BME280;26317;44.894;20.286;2023-12-04T08:32:38;101950.59;;;1.43;81.81
40612;BME280;26317;44.894;20.286;2023-12-04T08:35:08;101959.81;;;1.47;81.22
40612;BME280;26317;44.894;20.286;2023-12-04T08:37:39;101955.19;;;1.49;80.36
40612;BME280;26317;44.894;20.286;2023-12-04T08:40:19;101959.31;;;1.52;81.31
40612;BME280;26317;44.894;20.286;2023-12-04T08:42:49;101958.78;;;1.56;80.96
40612;BME280;26317;44.894;20.286;2023-12-04T08:45:22;101959.69;;;1.63;81.14
40612;BME280;26317;44.894;20.286;2023-12-04T08:47:53;101946.22;;;1.58;81.00
40612;BME280;26317;44.894;20.286;2023-12-04T08:50:23;101956.34;;;1.69;80.29
40612;BME280;26317;44.894;20.286;2023-12-04T08:52:54;101955.00;;;1.73;80.06
40612;BME280;26317;44.894;20.286;2023-12-04T08:55:24;101944.53;;;1.80;79.64
40612;BME280;26317;44.894;20.286;2023-12-04T08:57:55;101945.00;;;1.83;79.50
40612;BME280;26317;44.894;20.286;2023-12-04T09:00:28;101947.00;;;1.81;79.10
40612;BME280;26317;44.894;20.286;2023-12-04T09:03:00;101944.94;;;1.92;78.99
40612;BME280;26317;44.894;20.286;2023-12-04T09:05:36;101940.94;;;1.96;78.53
40612;BME280;26317;44.894;20.286;2023-12-04T09:08:08;101948.88;;;1.96;78.63
40612;BME280;26317;44.894;20.286;2023-12-04T09:10:58;101949.97;;;2.01;78.89
40612;BME280;26317;44.894;20.286;2023-12-04T09:13:48;101950.41;;;2.05;77.65
40612;BME280;26317;44.894;20.286;2023-12-04T09:16:23;101939.50;;;2.08;78.07
40612;BME280;26317;44.894;20.286;2023-12-04T09:18:51;101937.94;;;2.13;78.08
40612;BME280;26317;44.894;20.286;2023-12-04T09:21:21;101930.94;;;2.20;78.01
40612;BME280;26317;44.894;20.286;2023-12-04T09:23:52;101930.72;;;2.22;78.08
40612;BME280;26317;44.894;20.286;2023-12-04T09:26:23;101928.38;;;2.27;78.79
40612;BME280;26317;44.894;20.286;2023-12-04T09:28:54;101921.00;;;2.37;77.46
40612;BME280;26317;44.894;20.286;2023-12-04T09:31:28;101906.09;;;2.36;77.20
40612;BME280;26317;44.894;20.286;2023-12-04T09:33:59;101901.44;;;2.38;76.75
40612;BME280;26317;44.894;20.286;2023-12-04T09:36:29;101901.16;;;2.48;75.43
40612;BME280;26317;44.894;20.286;2023-12-04T09:39:00;101912.94;;;2.60;74.96
40612;BME280;26317;44.894;20.286;2023-12-04T09:41:30;101911.09;;;2.60;74.75
40612;BME280;26317;44.894;20.286;2023-12-04T09:44:01;101896.97;;;2.53;74.94
40612;BME280;26317;44.894;20.286;2023-12-04T09:46:34;101892.28;;;2.55;73.75
40612;BME280;26317;44.894;20.286;2023-12-04T09:49:08;101912.91;;;2.74;74.47
40612;BME280;26317;44.894;20.286;2023-12-04T09:51:39;101907.25;;;2.77;74.84
40612;BME280;26317;44.894;20.286;2023-12-04T09:54:10;101911.16;;;2.82;72.90
40612;BME280;26317;44.894;20.286;2023-12-04T09:56:44;101908.78;;;2.87;72.76
40612;BME280;26317;44.894;20.286;2023-12-04T09:59:24;101893.88;;;2.86;72.10
40612;BME280;26317;44.894;20.286;2023-12-04T10:02:00;101892.78;;;2.95;71.18
40612;BME280;26317;44.894;20.286;2023-12-04T10:04:32;101885.09;;;3.00;69.67
40612;BME280;26317;44.894;20.286;2023-12-04T10:07:03;101887.97;;;3.05;68.25
40612;BME280;26317;44.894;20.286;2023-12-04T10:09:34;101887.78;;;3.06;68.48
40612;BME280;26317;44.894;20.286;2023-12-04T10:12:06;101873.38;;;3.09;67.76
40612;BME280;26317;44.894;20.286;2023-12-04T10:14:37;101883.25;;;3.21;66.50
40612;BME280;26317;44.894;20.286;2023-12-04T10:17:16;101881.06;;;3.25;65.93
40612;BME280;26317;44.894;20.286;2023-12-04T10:19:48;101874.56;;;3.28;65.49
40612;BME280;26317;44.894;20.286;2023-12-04T10:22:39;101873.97;;;3.32;64.20
40612;BME280;26317;44.894;20.286;2023-12-04T10:25:16;101857.28;;;3.38;62.76
40612;BME280;26317;44.894;20.286;2023-12-04T10:27:47;101863.06;;;3.42;64.22
40612;BME280;26317;44.894;20.286;2023-12-04T10:30:29;101872.50;;;3.51;63.23
40612;BME280;26317;44.894;20.286;2023-12-04T10:33:06;101870.66;;;3.51;60.98
40612;BME280;26317;44.894;20.286;2023-12-04T10:35:37;101863.53;;;3.52;61.29
40612;BME280;26317;44.894;20.286;2023-12-04T10:38:10;101836.09;;;3.38;60.97
40612;BME280;26317;44.894;20.286;2023-12-04T10:40:44;101853.13;;;3.50;61.57
40612;BME280;26317;44.894;20.286;2023-12-04T10:43:22;101849.66;;;3.50;63.30
40612;BME280;26317;44.894;20.286;2023-12-04T10:45:57;101850.34;;;3.58;62.64
40612;BME280;26317;44.894;20.286;2023-12-04T10:48:49;101853.03;;;3.65;62.56
40612;BME280;26317;44.894;20.286;2023-12-04T10:51:25;101842.84;;;3.68;60.97
40612;BME280;26317;44.894;20.286;2023-12-04T10:53:57;101823.59;;;3.60;62.75
40612;BME280;26317;44.894;20.286;2023-12-04T10:56:36;101832.31;;;3.75;64.28
40612;BME280;26317;44.894;20.286;2023-12-04T10:59:23;101824.72;;;3.72;64.67
40612;BME280;26317;44.894;20.286;2023-12-04T11:01:56;101823.28;;;3.69;63.93
40612;BME280;26317;44.894;20.286;2023-12-04T11:04:33;101801.63;;;3.66;63.46
40612;BME280;26317;44.894;20.286;2023-12-04T11:07:06;101815.56;;;3.75;63.41
40612;BME280;26317;44.894;20.286;2023-12-04T11:09:38;101806.19;;;3.79;63.52
40612;BME280;26317;44.894;20.286;2023-12-04T11:12:11;101800.72;;;3.87;63.44
40612;BME280;26317;44.894;20.286;2023-12-04T11:14:50;101805.66;;;3.90;63.01
40612;BME280;26317;44.894;20.286;2023-12-04T11:17:23;101791.78;;;3.94;63.24
40612;BME280;26317;44.894;20.286;2023-12-04T11:19:59;101781.41;;;3.99;63.67
40612;BME280;26317;44.894;20.286;2023-12-04T11:22:34;101780.00;;;4.03;63.98
40612;BME280;26317;44.894;20.286;2023-12-04T11:25:08;101772.78;;;3.91;62.93
40612;BME280;26317;44.894;20.286;2023-12-04T11:27:41;101768.09;;;3.93;62.12
40612;BME280;26317;44.894;20.286;2023-12-04T11:30:14;101770.97;;;3.98;62.79
40612;BME280;26317;44.894;20.286;2023-12-04T11:32:46;101756.06;;;3.97;63.65
40612;BME280;26317;44.894;20.286;2023-12-04T11:35:25;101762.19;;;3.91;62.60
40612;BME280;26317;44.894;20.286;2023-12-04T11:37:56;101752.63;;;3.96;63.82
40612;BME280;26317;44.894;20.286;2023-12-04T11:40:27;101751.97;;;3.94;62.62
40612;BME280;26317;44.894;20.286;2023-12-04T11:43:09;101753.41;;;3.97;63.76
40612;BME280;26317;44.894;20.286;2023-12-04T11:45:55;101750.16;;;3.95;62.65
40612;BME280;26317;44.894;20.286;2023-12-04T11:48:37;101750.34;;;3.93;62.26
40612;BME280;26317;44.894;20.286;2023-12-04T11:51:10;101738.72;;;3.94;62.44
40612;BME280;26317;44.894;20.286;2023-12-04T11:53:40;101730.50;;;3.89;63.06
40612;BME280;26317;44.894;20.286;2023-12-04T11:56:12;101726.03;;;3.90;62.58
40612;BME280;26317;44.894;20.286;2023-12-04T11:58:43;101724.25;;;4.03;64.01
40612;BME280;26317;44.894;20.286;2023-12-04T12:01:17;101710.97;;;4.03;64.17
40612;BME280;26317;44.894;20.286;2023-12-04T12:03:50;101715.09;;;4.12;63.17
40612;BME280;26317;44.894;20.286;2023-12-04T12:06:24;101708.38;;;4.23;62.54
40612;BME280;26317;44.894;20.286;2023-12-04T12:08:56;101696.16;;;4.29;62.27
40612;BME280;26317;44.894;20.286;2023-12-04T12:11:26;101688.78;;;4.31;62.62
40612;BME280;26317;44.894;20.286;2023-12-04T12:14:03;101689.00;;;4.36;63.14
40612;BME280;26317;44.894;20.286;2023-12-04T12:16:37;101691.44;;;4.31;62.91
40612;BME280;26317;44.894;20.286;2023-12-04T12:19:11;101680.81;;;4.24;62.65
40612;BME280;26317;44.894;20.286;2023-12-04T12:21:45;101686.34;;;4.29;63.65
40612;BME280;26317;44.894;20.286;2023-12-04T12:24:16;101673.47;;;4.39;63.33
40612;BME280;26317;44.894;20.286;2023-12-04T12:26:49;101677.59;;;4.42;62.99
40612;BME280;26317;44.894;20.286;2023-12-04T12:29:20;101671.06;;;4.44;63.35
40612;BME280;26317;44.894;20.286;2023-12-04T12:31:51;101662.66;;;4.41;63.92
40612;BME280;26317;44.894;20.286;2023-12-04T12:34:22;101665.75;;;4.44;64.13
40612;BME280;26317;44.894;20.286;2023-12-04T12:36:59;101666.16;;;4.48;64.13
40612;BME280;26317;44.894;20.286;2023-12-04T12:39:34;101666.16;;;4.41;64.08
40612;BME280;26317;44.894;20.286;2023-12-04T12:42:05;101651.22;;;4.40;64.39
40612;BME280;26317;44.894;20.286;2023-12-04T12:44:39;101654.50;;;4.42;65.10
40612;BME280;26317;44.894;20.286;2023-12-04T12:47:10;101618.75;;;4.25;64.47
40612;BME280;26317;44.894;20.286;2023-12-04T12:49:43;101638.16;;;4.32;64.68
40612;BME280;26317;44.894;20.286;2023-12-04T12:52:16;101642.03;;;4.36;65.90
40612;BME280;26317;44.894;20.286;2023-12-04T12:54:47;101629.38;;;4.38;65.86
40612;BME280;26317;44.894;20.286;2023-12-04T12:57:17;101609.53;;;4.34;66.07
40612;BME280;26317;44.894;20.286;2023-12-04T12:59:49;101634.91;;;4.50;66.46
40612;BME280;26317;44.894;20.286;2023-12-04T13:02:23;101632.03;;;4.38;67.33
40612;BME280;26317;44.894;20.286;2023-12-04T13:04:54;101626.28;;;4.35;67.61
40612;BME280;26317;44.894;20.286;2023-12-04T13:07:28;101601.13;;;4.17;67.41
40612;BME280;26317;44.894;20.286;2023-12-04T13:10:01;101579.47;;;4.01;68.16
40612;BME280;26317;44.894;20.286;2023-12-04T13:12:32;101621.59;;;4.24;68.27
40612;BME280;26317;44.894;20.286;2023-12-04T13:15:06;101595.44;;;4.07;68.33